Time;durP1;ratioP1;P1;durP2;ratioP2;P2;SDS_P1;SDS_P2;PMS_P1;PMS_P2;Temp;Humidity;BMP_temperature;BMP_pressure;BME280_temperature;BME280_humidity;BME280_pressure;Samples;Min_cycle;Max_cycle;Signal;HPM_P1;HPM_P2
2021/03/19 00:01:39;;;;;;;15.05;2.85;;;19.20;99.90;;;;;;5070209;28;20496;-84
2021/03/19 00:04:08;;;;;;;19.73;3.63;;;19.00;99.90;;;;;;5054708;28;20467;-84
2021/03/19 00:06:35;;;;;;;16.35;2.58;;;18.70;99.90;;;;;;5060926;28;20398;-85
2021/03/19 00:09:04;;;;;;;20.05;3.40;;;18.60;99.90;;;;;;5065238;28;20402;-87
2021/03/19 00:11:32;;;;;;;17.08;3.20;;;18.60;99.90;;;;;;5063242;28;20404;-85
2021/03/19 00:14:00;;;;;;;22.27;4.07;;;18.60;99.90;;;;;;5060636;28;20398;-86
2021/03/19 00:16:27;;;;;;;22.92;3.55;;;18.70;99.90;;;;;;5064422;28;20474;-86
2021/03/19 00:18:54;;;;;;;19.63;3.13;;;18.80;99.90;;;;;;5066530;28;20402;-85
2021/03/19 00:21:21;;;;;;;18.63;3.30;;;18.90;99.90;;;;;;5059738;28;20395;-86
2021/03/19 00:23:51;;;;;;;23.45;3.50;;;19.00;99.90;;;;;;5066059;28;21307;-85
2021/03/19 00:26:19;;;;;;;18.58;3.33;;;19.10;99.90;;;;;;5042677;28;20852;-87
2021/03/19 00:28:46;;;;;;;19.73;3.35;;;19.20;99.90;;;;;;5052442;28;20469;-87
2021/03/19 00:31:13;;;;;;;21.38;3.92;;;19.30;99.90;;;;;;5066521;28;20717;-89
2021/03/19 00:33:41;;;;;;;20.73;3.30;;;19.30;99.90;;;;;;5062275;28;20999;-86
2021/03/19 00:36:08;;;;;;;12.50;3.10;;;19.40;99.90;;;;;;5069661;28;20436;-85
2021/03/19 00:38:35;;;;;;;18.55;3.03;;;19.40;99.90;;;;;;5082339;28;20396;-87
2021/03/19 00:41:03;;;;;;;23.73;3.43;;;19.50;99.90;;;;;;5081311;28;20401;-86
2021/03/19 00:43:30;;;;;;;19.30;3.90;;;19.60;99.90;;;;;;5071892;28;20885;-82
2021/03/19 00:45:58;;;;;;;17.77;3.28;;;19.70;99.90;;;;;;5071949;28;20765;-86
2021/03/19 00:48:25;;;;;;;18.13;3.00;;;19.90;99.90;;;;;;5064895;28;20397;-88
2021/03/19 00:50:54;;;;;;;24.10;3.60;;;20.10;99.90;;;;;;5100299;28;20435;-84
2021/03/19 00:53:22;;;;;;;19.45;3.30;;;20.20;99.90;;;;;;5069562;28;20397;-88
2021/03/19 00:55:51;;;;;;;19.50;3.38;;;20.50;99.90;;;;;;5069902;28;20414;-86
2021/03/19 00:58:19;;;;;;;15.02;2.90;;;20.60;99.90;;;;;;5064371;28;20760;-87
2021/03/19 01:00:46;;;;;;;17.48;2.65;;;20.80;99.90;;;;;;5075864;28;20403;-88
2021/03/19 01:03:13;;;;;;;16.30;3.00;;;20.90;99.90;;;;;;5079867;28;20424;-85
2021/03/19 01:05:45;;;;;;;19.33;3.25;;;21.00;99.90;;;;;;5071037;28;20441;-85
2021/03/19 01:08:15;;;;;;;15.10;3.13;;;21.00;99.90;;;;;;5083103;28;20399;-86
2021/03/19 01:10:43;;;;;;;15.90;3.22;;;21.10;99.90;;;;;;5087467;28;20479;-85
2021/03/19 01:13:11;;;;;;;18.30;3.00;;;21.20;99.90;;;;;;5078630;28;20791;-86
2021/03/19 01:15:40;;;;;;;19.85;3.42;;;21.40;99.90;;;;;;5074755;28;20402;-87
2021/03/19 01:18:11;;;;;;;23.80;3.53;;;21.40;99.90;;;;;;5077427;28;20377;-85
2021/03/19 01:20:40;;;;;;;17.17;3.45;;;21.20;99.90;;;;;;5068658;28;20398;-84
2021/03/19 01:23:09;;;;;;;16.88;2.40;;;21.10;99.90;;;;;;5066282;28;20400;-84
2021/03/19 01:25:36;;;;;;;21.53;3.80;;;21.00;99.90;;;;;;5086265;28;20482;-87
2021/03/19 01:28:03;;;;;;;16.02;2.80;;;21.00;99.90;;;;;;5088032;28;20382;-86
2021/03/19 01:30:39;;;;;;;20.40;3.25;;;21.00;99.90;;;;;;5075478;28;20397;-84
2021/03/19 01:33:07;;;;;;;16.90;3.15;;;21.00;99.90;;;;;;5069509;28;20812;-84
2021/03/19 01:35:37;;;;;;;15.10;3.13;;;20.90;99.90;;;;;;5069669;28;20394;-83
2021/03/19 01:38:04;;;;;;;17.63;3.55;;;21.00;99.90;;;;;;5073785;28;20409;-85
2021/03/19 01:40:38;;;;;;;16.63;3.17;;;21.00;99.90;;;;;;5085235;28;20782;-86
2021/03/19 01:43:11;;;;;;;16.70;3.08;;;21.00;99.90;;;;;;5097204;28;20475;-87
2021/03/19 01:46:15;;;;;;;18.30;3.17;;;21.00;99.90;;;;;;5079090;28;20889;-86
2021/03/19 01:49:19;;;;;;;17.92;2.92;;;21.00;99.90;;;;;;5060509;28;20382;-86
2021/03/19 01:52:22;;;;;;;15.65;3.03;;;21.10;99.90;;;;;;5076202;28;20439;-89
2021/03/19 01:55:26;;;;;;;15.90;3.20;;;21.40;99.90;;;;;;5073642;28;20373;-83
2021/03/19 01:58:29;;;;;;;15.77;3.38;;;21.60;99.90;;;;;;5077776;28;20405;-86
2021/03/19 02:01:33;;;;;;;15.25;2.47;;;21.80;99.90;;;;;;5070868;28;20387;-85
2021/03/19 02:04:37;;;;;;;15.55;2.78;;;21.80;99.90;;;;;;5079075;28;20477;-86
2021/03/19 02:07:40;;;;;;;17.25;2.92;;;21.90;99.90;;;;;;5076425;28;20380;-86
2021/03/19 02:10:44;;;;;;;18.55;2.97;;;21.90;99.90;;;;;;5084974;28;20522;-83
2021/03/19 02:13:48;;;;;;;14.73;2.72;;;21.80;99.90;;;;;;5074245;28;20477;-84
2021/03/19 02:16:52;;;;;;;14.07;2.58;;;21.70;99.90;;;;;;5080957;28;20767;-85
2021/03/19 02:19:56;;;;;;;16.43;3.27;;;21.70;99.90;;;;;;5073338;28;20478;-83
2021/03/19 02:22:59;;;;;;;15.45;2.55;;;21.80;99.90;;;;;;5073790;28;20747;-83
2021/03/19 02:26:03;;;;;;;16.23;2.95;;;21.70;99.90;;;;;;5072838;28;20489;-83
2021/03/19 02:29:07;;;;;;;16.87;2.73;;;21.80;99.90;;;;;;5070917;28;20402;-83
2021/03/19 02:31:54;;;;;;;12.95;3.08;;;22.10;99.90;;;;;;5077750;28;20405;-86
2021/03/19 02:34:28;;;;;;;16.57;2.90;;;22.40;99.90;;;;;;5072660;28;20449;-83
2021/03/19 02:36:56;;;;;;;20.40;3.28;;;22.60;99.90;;;;;;5076862;28;20484;-83
2021/03/19 02:39:23;;;;;;;14.52;2.88;;;22.60;99.90;;;;;;5073371;28;20405;-85
2021/03/19 02:41:50;;;;;;;16.02;2.85;;;22.50;99.90;;;;;;5054667;28;20747;-84
2021/03/19 02:44:18;;;;;;;10.63;2.15;;;22.50;99.90;;;;;;5061200;28;20394;-86
2021/03/19 02:46:45;;;;;;;10.90;2.20;;;22.50;99.90;;;;;;5068482;28;20378;-85
2021/03/19 02:49:12;;;;;;;13.40;2.30;;;22.70;99.90;;;;;;5073331;28;20446;-85
2021/03/19 02:51:39;;;;;;;17.10;2.58;;;22.60;99.90;;;;;;5071765;28;20433;-84
2021/03/19 02:54:06;;;;;;;12.77;2.20;;;22.60;99.90;;;;;;5068722;28;20429;-86
2021/03/19 02:56:54;;;;;;;12.82;2.63;;;22.50;99.90;;;;;;5076692;28;20397;-84
2021/03/19 02:59:20;;;;;;;11.93;2.60;;;22.40;99.90;;;;;;5089821;28;20400;-85
2021/03/19 03:01:48;;;;;;;13.13;2.40;;;22.30;99.90;;;;;;5087391;28;20467;-85
2021/03/19 03:04:16;;;;;;;14.17;2.80;;;22.40;99.90;;;;;;5088080;28;21143;-84
2021/03/19 03:06:55;;;;;;;17.33;3.50;;;22.50;99.90;;;;;;5086224;28;20400;-86
2021/03/19 03:09:29;;;;;;;17.00;2.75;;;22.30;99.90;;;;;;5072718;28;20396;-87
2021/03/19 03:11:57;;;;;;;16.92;3.00;;;22.20;99.90;;;;;;5069498;28;20386;-87
2021/03/19 03:14:27;;;;;;;13.60;3.20;;;22.20;99.90;;;;;;5078598;28;20487;-82
2021/03/19 03:16:59;;;;;;;16.83;3.17;;;22.20;99.90;;;;;;5073099;28;20493;-84
2021/03/19 03:19:29;;;;;;;11.87;2.93;;;22.10;99.90;;;;;;5069815;28;20402;-81
2021/03/19 03:21:57;;;;;;;16.20;2.78;;;21.80;99.90;;;;;;5072777;28;20393;-83
2021/03/19 03:24:25;;;;;;;17.02;3.55;;;21.60;99.90;;;;;;5071762;28;20406;-83
2021/03/19 03:26:53;;;;;;;15.85;3.28;;;21.40;99.90;;;;;;5081872;28;20491;-83
2021/03/19 03:29:21;;;;;;;17.23;3.17;;;21.30;99.90;;;;;;5073104;28;20486;-83
2021/03/19 03:31:49;;;;;;;17.23;2.90;;;21.30;99.90;;;;;;5090021;28;20744;-84
2021/03/19 03:34:16;;;;;;;19.42;3.88;;;21.30;99.90;;;;;;5067741;28;20415;-83
2021/03/19 03:36:44;;;;;;;18.05;3.55;;;21.40;99.90;;;;;;5054012;28;20393;-83
2021/03/19 03:39:15;;;;;;;14.73;3.15;;;21.50;99.90;;;;;;5029712;28;20755;-82
2021/03/19 03:41:42;;;;;;;21.63;3.93;;;21.60;99.90;;;;;;5049279;28;21022;-83
2021/03/19 03:44:13;;;;;;;18.35;3.30;;;21.40;99.90;;;;;;5056755;28;20386;-84
2021/03/19 03:46:42;;;;;;;21.02;3.58;;;21.20;99.90;;;;;;5046940;28;20415;-86
2021/03/19 03:49:10;;;;;;;22.38;3.75;;;21.10;99.90;;;;;;5034846;28;20392;-86
2021/03/19 03:51:37;;;;;;;22.50;3.45;;;21.10;99.90;;;;;;5056086;28;20539;-85
2021/03/19 03:54:05;;;;;;;18.42;3.28;;;20.80;99.90;;;;;;5051350;28;20936;-84
2021/03/19 03:56:32;;;;;;;18.80;3.05;;;20.70;99.90;;;;;;5044943;28;20750;-86
2021/03/19 03:58:59;;;;;;;20.55;3.33;;;20.70;99.90;;;;;;5070030;28;20427;-85
2021/03/19 04:01:27;;;;;;;20.25;3.35;;;20.60;99.90;;;;;;5069823;28;20428;-85
2021/03/19 04:03:54;;;;;;;18.65;3.38;;;20.60;99.90;;;;;;5059593;28;20442;-84
2021/03/19 04:06:27;;;;;;;18.40;2.85;;;20.70;99.90;;;;;;5062433;28;20551;-85
2021/03/19 04:08:54;;;;;;;13.00;2.85;;;20.70;99.90;;;;;;5056446;28;20365;-85
2021/03/19 04:11:23;;;;;;;17.20;3.33;;;20.60;99.90;;;;;;5055465;28;20465;-85
2021/03/19 04:13:52;;;;;;;16.50;3.28;;;20.60;99.90;;;;;;5069181;28;20468;-84
2021/03/19 04:16:20;;;;;;;17.25;2.95;;;20.50;99.90;;;;;;5071342;28;20370;-84
2021/03/19 04:18:47;;;;;;;16.15;2.65;;;20.50;99.90;;;;;;5043969;28;20368;-84
2021/03/19 04:21:15;;;;;;;15.93;3.07;;;20.50;99.90;;;;;;5041202;28;20496;-84
2021/03/19 04:23:47;;;;;;;14.57;2.35;;;20.50;99.90;;;;;;5051350;28;20380;-83
2021/03/19 04:26:28;;;;;;;20.85;3.28;;;20.60;99.90;;;;;;5039616;28;20407;-84
2021/03/19 04:28:56;;;;;;;11.18;2.42;;;20.70;99.90;;;;;;5049319;28;20371;-84
2021/03/19 04:31:23;;;;;;;15.55;2.60;;;20.80;99.90;;;;;;5058770;28;20543;-85
2021/03/19 04:33:51;;;;;;;13.88;2.80;;;20.70;99.90;;;;;;5046690;28;20397;-85
2021/03/19 04:36:41;;;;;;;14.30;2.50;;;20.70;99.90;;;;;;5063679;28;20402;-85
2021/03/19 04:39:12;;;;;;;13.60;2.50;;;20.80;99.90;;;;;;5070666;28;20721;-86
2021/03/19 04:41:44;;;;;;;15.73;2.73;;;20.80;99.90;;;;;;5078803;28;20372;-87
2021/03/19 04:44:11;;;;;;;15.30;2.67;;;20.80;99.90;;;;;;5074966;28;20424;-86
2021/03/19 04:46:39;;;;;;;20.13;2.80;;;20.70;99.90;;;;;;5063880;28;20408;-85
2021/03/19 04:49:06;;;;;;;17.05;2.97;;;20.80;99.90;;;;;;5087133;28;20459;-85
2021/03/19 04:51:34;;;;;;;18.33;3.00;;;20.80;99.90;;;;;;5091035;28;20896;-86
2021/03/19 04:54:01;;;;;;;14.88;2.95;;;20.70;99.90;;;;;;5092096;28;20414;-87
2021/03/19 04:56:31;;;;;;;13.48;2.83;;;20.70;99.90;;;;;;5088435;28;20444;-89
2021/03/19 04:58:58;;;;;;;14.52;3.00;;;20.70;99.90;;;;;;5083385;28;20381;-87
2021/03/19 05:01:25;;;;;;;16.52;2.53;;;20.70;99.90;;;;;;5070790;28;20472;-87
2021/03/19 05:03:52;;;;;;;18.03;3.20;;;20.70;99.90;;;;;;5076200;28;20422;-86
2021/03/19 05:06:20;;;;;;;18.58;2.72;;;20.70;99.90;;;;;;5075376;28;20443;-84
2021/03/19 05:08:47;;;;;;;14.02;2.78;;;20.70;99.90;;;;;;5081241;28;20395;-85
2021/03/19 05:11:16;;;;;;;13.05;2.78;;;20.80;99.90;;;;;;5083963;28;20937;-83
2021/03/19 05:13:45;;;;;;;15.80;3.15;;;20.80;99.90;;;;;;5072133;28;20436;-87
2021/03/19 05:16:12;;;;;;;13.82;2.72;;;20.80;99.90;;;;;;5076492;28;20941;-85
2021/03/19 05:18:39;;;;;;;14.90;2.80;;;20.80;99.90;;;;;;5079624;28;20382;-84
2021/03/19 05:21:06;;;;;;;13.95;2.55;;;20.80;99.90;;;;;;5078274;28;20397;-84
2021/03/19 05:23:35;;;;;;;15.60;2.53;;;20.80;99.90;;;;;;5074892;28;20384;-85
2021/03/19 05:26:03;;;;;;;15.48;2.78;;;20.80;99.90;;;;;;5093875;28;20464;-85
2021/03/19 05:28:31;;;;;;;19.63;2.87;;;20.80;99.90;;;;;;5072952;28;20391;-84
2021/03/19 05:30:58;;;;;;;13.60;2.80;;;20.80;99.90;;;;;;5072148;28;20382;-84
2021/03/19 05:33:29;;;;;;;18.17;3.00;;;20.80;99.90;;;;;;5072143;28;20366;-85
2021/03/19 05:35:57;;;;;;;11.48;2.33;;;20.70;99.90;;;;;;5070880;28;20398;-84
2021/03/19 05:38:24;;;;;;;15.73;2.45;;;20.70;99.90;;;;;;5071852;28;20828;-86
2021/03/19 05:40:56;;;;;;;19.67;3.57;;;20.70;99.90;;;;;;5070003;28;20473;-85
2021/03/19 05:43:23;;;;;;;16.08;3.03;;;20.60;99.90;;;;;;5071206;28;20932;-85
2021/03/19 05:46:04;;;;;;;18.45;3.42;;;20.60;99.90;;;;;;5071002;28;20400;-84
2021/03/19 05:48:51;;;;;;;19.65;3.47;;;20.60;99.90;;;;;;5070538;28;20920;-85
2021/03/19 05:51:24;;;;;;;14.50;2.95;;;20.80;99.90;;;;;;5071010;28;20394;-86
2021/03/19 05:53:58;;;;;;;18.00;3.22;;;21.00;99.90;;;;;;5069404;28;20390;-86
2021/03/19 05:56:30;;;;;;;15.98;2.92;;;21.00;99.90;;;;;;5067979;28;20962;-87
2021/03/19 05:58:57;;;;;;;14.68;2.53;;;21.10;99.90;;;;;;5070319;28;20399;-86
2021/03/19 06:01:27;;;;;;;13.10;2.67;;;21.10;99.90;;;;;;5088088;28;20400;-85
2021/03/19 06:04:04;;;;;;;19.55;2.95;;;21.10;99.90;;;;;;5079076;28;20374;-85
2021/03/19 06:07:00;;;;;;;17.98;2.90;;;21.10;99.90;;;;;;5067278;28;20401;-86
2021/03/19 06:09:39;;;;;;;15.70;3.08;;;21.10;99.90;;;;;;5071468;28;20409;-85
2021/03/19 06:12:09;;;;;;;11.55;2.65;;;21.00;99.90;;;;;;5082292;28;20378;-85
2021/03/19 06:14:48;;;;;;;14.85;2.63;;;21.00;99.90;;;;;;5074844;28;20417;-85
2021/03/19 06:17:26;;;;;;;15.47;2.57;;;20.90;99.90;;;;;;5069893;28;20469;-86
2021/03/19 06:20:07;;;;;;;19.73;3.00;;;20.80;99.90;;;;;;5067852;28;20394;-85
2021/03/19 06:22:38;;;;;;;18.15;3.22;;;20.80;99.90;;;;;;5066051;28;20449;-85
2021/03/19 06:25:21;;;;;;;16.42;3.35;;;20.70;99.90;;;;;;5090640;28;20806;-87
2021/03/19 06:27:54;;;;;;;15.75;3.00;;;20.70;99.90;;;;;;5068776;28;20742;-85
2021/03/19 06:30:27;;;;;;;18.42;2.80;;;20.70;99.90;;;;;;5101490;28;20385;-85
2021/03/19 06:33:12;;;;;;;18.15;3.17;;;20.70;99.90;;;;;;5079999;28;20409;-86
2021/03/19 06:35:46;;;;;;;20.05;3.20;;;20.60;99.90;;;;;;5067255;28;20398;-86
2021/03/19 06:38:37;;;;;;;15.77;3.07;;;20.60;99.90;;;;;;5069749;28;20386;-85
2021/03/19 06:41:31;;;;;;;14.55;3.00;;;20.60;99.90;;;;;;5070302;28;20484;-85
2021/03/19 06:44:13;;;;;;;16.58;3.17;;;20.60;99.90;;;;;;5064409;28;20382;-85
2021/03/19 06:46:48;;;;;;;23.17;3.92;;;20.50;99.90;;;;;;5070112;28;20453;-85
2021/03/19 06:49:16;;;;;;;20.63;3.72;;;20.50;99.90;;;;;;5070360;28;20378;-86
2021/03/19 06:51:47;;;;;;;21.23;3.70;;;20.50;99.90;;;;;;5070118;28;20385;-86
2021/03/19 06:54:25;;;;;;;15.70;3.10;;;20.50;99.90;;;;;;5070383;28;20382;-86
2021/03/19 06:57:12;;;;;;;22.35;4.10;;;20.40;99.90;;;;;;5072130;28;20880;-85
2021/03/19 06:59:51;;;;;;;18.15;3.28;;;20.40;99.90;;;;;;5068829;28;20428;-85
2021/03/19 07:02:33;;;;;;;25.88;4.03;;;20.40;99.90;;;;;;5069356;28;20389;-85
2021/03/19 07:05:21;;;;;;;22.13;3.63;;;20.40;99.90;;;;;;5068063;28;20855;-84
2021/03/19 07:07:57;;;;;;;15.80;3.30;;;20.30;99.90;;;;;;5069372;28;20382;-86
2021/03/19 07:10:42;;;;;;;22.55;3.47;;;20.30;99.90;;;;;;5069906;28;20890;-86
2021/03/19 07:14:02;;;;;;;18.52;3.25;;;20.30;99.90;;;;;;5069761;28;20742;-86
2021/03/19 07:16:51;;;;;;;18.13;3.28;;;20.30;99.90;;;;;;5046337;28;20740;-85
2021/03/19 07:19:21;;;;;;;14.07;2.95;;;20.30;99.90;;;;;;5070681;28;20382;-85
2021/03/19 07:22:45;;;;;;;21.77;4.38;;;20.20;99.90;;;;;;5069204;28;20477;-84
2021/03/19 07:25:49;;;;;;;20.25;3.80;;;20.20;99.90;;;;;;5064015;28;20434;-85
2021/03/19 07:28:58;;;;;;;17.35;3.47;;;20.20;99.90;;;;;;5044642;28;20388;-86
2021/03/19 07:31:53;;;;;;;20.52;5.30;;;20.10;99.90;;;;;;5061963;28;20416;-87
2021/03/19 07:34:41;;;;;;;19.00;3.70;;;20.20;99.90;;;;;;5067909;28;20465;-85
2021/03/19 07:37:35;;;;;;;17.23;3.45;;;20.10;99.90;;;;;;5066800;28;20440;-86
2021/03/19 07:40:43;;;;;;;19.33;3.38;;;20.10;99.90;;;;;;5069725;28;20379;-85
2021/03/19 07:43:41;;;;;;;15.77;3.00;;;20.10;99.90;;;;;;5080329;28;20901;-85
2021/03/19 07:46:17;;;;;;;18.35;2.75;;;20.10;99.90;;;;;;5082051;28;20465;-85
2021/03/19 07:49:26;;;;;;;15.35;3.05;;;20.10;99.90;;;;;;5068129;28;20424;-85
2021/03/19 07:52:16;;;;;;;22.08;3.88;;;20.00;99.90;;;;;;5061889;28;20892;-83
2021/03/19 07:54:55;;;;;;;17.93;3.10;;;20.00;99.90;;;;;;5069542;28;20410;-85
2021/03/19 07:57:36;;;;;;;20.73;3.80;;;19.90;99.90;;;;;;5077580;28;20372;-84
2021/03/19 08:00:20;;;;;;;19.77;3.28;;;19.90;99.90;;;;;;5069613;28;20417;-85
2021/03/19 08:02:56;;;;;;;20.60;3.30;;;19.90;99.90;;;;;;5069125;28;20413;-83
2021/03/19 08:05:28;;;;;;;16.40;3.40;;;19.80;99.90;;;;;;5076759;28;20449;-85
2021/03/19 08:08:37;;;;;;;23.73;3.28;;;19.70;99.90;;;;;;5086012;28;20946;-88
2021/03/19 08:11:16;;;;;;;18.02;3.30;;;19.60;99.90;;;;;;5054921;28;20400;-84
2021/03/19 08:14:05;;;;;;;20.10;3.45;;;19.50;99.90;;;;;;5076840;28;20381;-83
2021/03/19 08:16:42;;;;;;;17.67;3.47;;;19.50;99.90;;;;;;5073375;28;20480;-84
2021/03/19 08:19:09;;;;;;;18.85;3.13;;;19.30;99.90;;;;;;5081986;28;20755;-82
2021/03/19 08:21:50;;;;;;;21.40;3.50;;;19.30;99.90;;;;;;5068213;28;20398;-83
2021/03/19 08:24:41;;;;;;;22.02;4.13;;;19.30;99.90;;;;;;5068999;28;20406;-85
2021/03/19 08:27:12;;;;;;;23.02;4.13;;;19.30;99.90;;;;;;5073558;28;20366;-83
2021/03/19 08:30:05;;;;;;;15.55;2.88;;;19.30;99.90;;;;;;5053905;28;20387;-83
2021/03/19 08:32:49;;;;;;;18.17;2.97;;;19.40;99.90;;;;;;5053201;28;20428;-82
2021/03/19 08:35:22;;;;;;;18.42;3.33;;;19.40;99.90;;;;;;5057642;28;20401;-82
2021/03/19 08:38:27;;;;;;;20.45;3.30;;;19.40;99.90;;;;;;5069892;28;20386;-82
2021/03/19 08:41:31;;;;;;;20.52;3.63;;;19.40;99.90;;;;;;5045228;28;20441;-81
2021/03/19 08:44:05;;;;;;;19.25;3.30;;;19.40;99.90;;;;;;5053014;28;20384;-82
2021/03/19 08:46:51;;;;;;;24.83;4.53;;;19.40;99.90;;;;;;5052860;28;20396;-82
2021/03/19 08:49:24;;;;;;;18.55;3.15;;;19.50;99.90;;;;;;5053380;28;20368;-84
2021/03/19 08:51:56;;;;;;;21.65;3.67;;;19.50;99.90;;;;;;5056607;28;20394;-82
2021/03/19 08:54:26;;;;;;;21.30;4.32;;;19.50;99.90;;;;;;5048573;28;20780;-86
2021/03/19 08:57:06;;;;;;;19.73;3.67;;;19.50;99.90;;;;;;5065619;28;20447;-83
2021/03/19 08:59:36;;;;;;;18.45;3.45;;;19.40;99.90;;;;;;5043247;28;20764;-82
2021/03/19 09:02:23;;;;;;;20.90;3.58;;;19.50;99.90;;;;;;5056326;28;20402;-82
2021/03/19 09:04:54;;;;;;;23.58;3.67;;;19.40;99.90;;;;;;5040404;28;20543;-83
2021/03/19 09:07:29;;;;;;;21.02;3.30;;;19.40;99.90;;;;;;5070009;28;20408;-82
2021/03/19 09:10:20;;;;;;;18.02;3.45;;;19.40;99.90;;;;;;5049343;28;20375;-82
2021/03/19 09:12:56;;;;;;;22.07;3.57;;;19.40;99.90;;;;;;5001728;28;20443;-82
2021/03/19 09:15:23;;;;;;;16.73;3.30;;;19.30;99.90;;;;;;5052210;28;20380;-83
2021/03/19 09:18:00;;;;;;;19.95;3.75;;;19.30;99.90;;;;;;5058667;28;20382;-82
2021/03/19 09:20:39;;;;;;;24.23;3.38;;;19.30;99.90;;;;;;5042795;28;20392;-83
2021/03/19 09:23:15;;;;;;;15.95;3.17;;;19.20;99.90;;;;;;5043467;28;20440;-82
2021/03/19 09:25:49;;;;;;;23.85;4.10;;;19.20;99.90;;;;;;5051592;28;20412;-83
2021/03/19 09:28:31;;;;;;;15.80;3.47;;;19.20;99.90;;;;;;5052097;28;20391;-82
2021/03/19 09:31:32;;;;;;;15.95;3.15;;;19.20;99.90;;;;;;5049577;28;20403;-82
2021/03/19 09:34:05;;;;;;;21.70;3.60;;;19.30;99.90;;;;;;5050944;28;20398;-82
2021/03/19 09:37:25;;;;;;;18.05;3.28;;;19.30;99.90;;;;;;5069504;28;20929;-82
2021/03/19 09:40:00;;;;;;;22.77;4.47;;;19.20;99.90;;;;;;4997934;28;20394;-82
2021/03/19 09:42:28;;;;;;;27.30;4.35;;;19.10;99.90;;;;;;5064346;28;20451;-82
2021/03/19 09:45:04;;;;;;;25.03;4.30;;;19.10;99.90;;;;;;5071052;28;20410;-86
2021/03/19 09:47:40;;;;;;;25.80;4.28;;;19.10;99.90;;;;;;5071809;28;20726;-82
2021/03/19 09:50:13;;;;;;;26.80;4.33;;;19.10;99.90;;;;;;5071704;28;20934;-84
2021/03/19 09:52:54;;;;;;;25.83;4.43;;;19.10;99.90;;;;;;5072860;28;20443;-83
2021/03/19 09:55:26;;;;;;;28.30;4.47;;;19.10;99.90;;;;;;5079104;28;20397;-84
2021/03/19 09:57:53;;;;;;;20.88;4.30;;;19.10;99.90;;;;;;5072482;28;20382;-84
2021/03/19 10:00:29;;;;;;;25.30;4.00;;;19.20;99.90;;;;;;5072012;28;20385;-84
2021/03/19 10:03:16;;;;;;;25.47;4.07;;;19.20;99.90;;;;;;5071872;28;20381;-84
2021/03/19 10:05:51;;;;;;;24.83;4.28;;;19.10;99.90;;;;;;5083796;28;20417;-86
2021/03/19 10:08:32;;;;;;;25.17;3.97;;;19.20;99.90;;;;;;5087258;28;20412;-84
2021/03/19 10:11:09;;;;;;;25.42;4.05;;;19.20;99.90;;;;;;5065572;28;20393;-85
2021/03/19 10:13:36;;;;;;;21.60;4.20;;;19.30;99.90;;;;;;5070467;28;20392;-83
2021/03/19 10:16:05;;;;;;;20.23;3.58;;;19.30;99.90;;;;;;5087153;28;20388;-83
2021/03/19 10:18:39;;;;;;;19.50;3.33;;;19.30;99.90;;;;;;5083425;28;20774;-81
2021/03/19 10:21:20;;;;;;;18.15;3.35;;;19.30;99.90;;;;;;5086467;28;20392;-84
2021/03/19 10:24:02;;;;;;;17.83;2.85;;;19.30;99.90;;;;;;5083331;28;20907;-84
2021/03/19 10:26:38;;;;;;;19.60;3.25;;;19.30;99.90;;;;;;5073226;28;20753;-83
2021/03/19 10:29:23;;;;;;;18.00;3.05;;;19.40;99.90;;;;;;5072402;28;20401;-83
2021/03/19 10:32:03;;;;;;;17.85;3.20;;;19.40;99.90;;;;;;5047959;28;20382;-82
2021/03/19 10:34:44;;;;;;;21.77;3.83;;;19.40;99.90;;;;;;5061791;28;20386;-86
2021/03/19 10:37:41;;;;;;;19.58;3.28;;;19.50;99.90;;;;;;5100184;28;20394;-84
2021/03/19 10:40:23;;;;;;;16.52;3.05;;;19.40;99.90;;;;;;5067614;28;20394;-86
2021/03/19 10:43:01;;;;;;;18.10;3.70;;;19.50;99.90;;;;;;5072354;28;20392;-83
2021/03/19 10:45:37;;;;;;;16.85;2.90;;;19.40;99.90;;;;;;5076988;28;20780;-82
2021/03/19 10:48:18;;;;;;;18.13;3.13;;;19.40;99.90;;;;;;5085121;28;20398;-85
2021/03/19 10:51:17;;;;;;;15.43;3.15;;;19.40;99.90;;;;;;5068023;28;21119;-84
2021/03/19 10:54:20;;;;;;;14.75;2.80;;;19.40;99.90;;;;;;5065040;28;20402;-83
2021/03/19 10:56:58;;;;;;;13.80;2.72;;;19.40;99.90;;;;;;5072292;28;20388;-83
2021/03/19 10:59:28;;;;;;;13.00;2.42;;;19.30;99.90;;;;;;5067854;28;20393;-84
2021/03/19 11:02:11;;;;;;;9.02;2.10;;;19.20;99.90;;;;;;5074631;28;20862;-82
2021/03/19 11:04:45;;;;;;;11.48;3.75;;;19.20;99.90;;;;;;5088314;28;20483;-82
2021/03/19 11:07:26;;;;;;;15.15;2.85;;;19.10;99.90;;;;;;5071726;28;20396;-82
2021/03/19 11:10:16;;;;;;;12.82;2.28;;;19.00;99.90;;;;;;5083501;28;20367;-83
2021/03/19 11:12:54;;;;;;;12.05;2.60;;;18.90;99.90;;;;;;5085649;28;20721;-83
2021/03/19 11:15:31;;;;;;;13.88;2.95;;;18.90;99.90;;;;;;5083824;28;20394;-82
2021/03/19 11:18:17;;;;;;;16.70;2.67;;;18.80;99.90;;;;;;5076212;28;20432;-83
2021/03/19 11:21:09;;;;;;;13.68;2.92;;;18.80;99.90;;;;;;5071535;28;20390;-83
2021/03/19 11:23:38;;;;;;;13.88;2.88;;;18.70;99.90;;;;;;5069771;28;20397;-84
2021/03/19 11:26:23;;;;;;;17.20;2.90;;;18.70;99.90;;;;;;5069941;28;20414;-83
2021/03/19 11:29:09;;;;;;;14.88;2.72;;;18.60;99.90;;;;;;5069470;28;20440;-83
2021/03/19 11:31:55;;;;;;;17.48;3.17;;;18.50;99.90;;;;;;5070246;28;20401;-82
2021/03/19 11:34:36;;;;;;;15.63;2.90;;;18.50;99.90;;;;;;5071441;28;20465;-82
2021/03/19 11:37:05;;;;;;;16.42;3.03;;;18.50;99.90;;;;;;5074371;28;20388;-83
2021/03/19 11:39:43;;;;;;;22.15;3.63;;;18.40;99.90;;;;;;5080451;28;20384;-82
2021/03/19 11:42:16;;;;;;;16.75;3.30;;;18.40;99.90;;;;;;5086878;28;20405;-83
2021/03/19 11:44:45;;;;;;;19.02;3.47;;;18.40;99.90;;;;;;5078134;28;20445;-82
2021/03/19 11:47:31;;;;;;;18.73;3.95;;;18.40;99.90;;;;;;5070969;28;20370;-84
2021/03/19 11:50:29;;;;;;;22.15;3.58;;;18.40;99.90;;;;;;5077038;28;20732;-83
2021/03/19 11:53:02;;;;;;;21.25;3.67;;;18.40;99.90;;;;;;5078840;28;20390;-82
2021/03/19 11:55:35;;;;;;;28.17;4.10;;;18.40;99.90;;;;;;5070259;28;20393;-83
2021/03/19 11:58:02;;;;;;;24.38;4.10;;;18.40;99.90;;;;;;5071116;28;21914;-83
2021/03/19 12:00:31;;;;;;;24.13;3.83;;;18.50;99.90;;;;;;5070423;28;20401;-83
2021/03/19 12:03:02;;;;;;;20.35;3.33;;;18.50;99.90;;;;;;5080380;28;20393;-85
2021/03/19 12:05:31;;;;;;;20.10;3.58;;;18.40;99.90;;;;;;5082655;28;20400;-83
2021/03/19 12:07:59;;;;;;;25.77;3.97;;;18.40;99.90;;;;;;5077197;28;20402;-82
2021/03/19 12:10:30;;;;;;;24.80;4.30;;;18.40;99.90;;;;;;5090174;28;20400;-83
2021/03/19 12:13:01;;;;;;;28.70;4.47;;;18.40;99.90;;;;;;5071198;28;20411;-83
2021/03/19 12:15:31;;;;;;;32.42;5.13;;;18.50;99.90;;;;;;5076920;28;20395;-83
2021/03/19 12:17:59;;;;;;;29.88;4.63;;;18.50;99.90;;;;;;5078737;28;20586;-83
2021/03/19 12:20:26;;;;;;;30.75;5.05;;;18.60;99.90;;;;;;5077659;28;20393;-84
2021/03/19 12:22:54;;;;;;;30.63;5.37;;;18.60;99.90;;;;;;5075157;28;20496;-85
2021/03/19 12:25:37;;;;;;;37.47;5.00;;;18.60;99.90;;;;;;5085252;28;20493;-83
2021/03/19 12:28:06;;;;;;;31.75;4.68;;;18.60;99.90;;;;;;5079306;28;20480;-84
2021/03/19 12:30:34;;;;;;;33.35;5.03;;;18.60;99.90;;;;;;5070134;28;20452;-84
2021/03/19 12:33:04;;;;;;;29.73;4.77;;;18.60;99.90;;;;;;5080030;28;20639;-84
2021/03/19 12:35:32;;;;;;;25.80;4.45;;;18.60;99.90;;;;;;5086387;28;20402;-86
2021/03/19 12:37:59;;;;;;;34.95;4.80;;;18.60;99.90;;;;;;5082885;28;20546;-86
2021/03/19 12:40:28;;;;;;;33.40;4.88;;;18.60;99.90;;;;;;5073759;28;20421;-85
2021/03/19 12:42:56;;;;;;;33.60;4.93;;;18.60;99.90;;;;;;5075615;28;20516;-84
2021/03/19 12:45:27;;;;;;;30.58;4.40;;;18.70;99.90;;;;;;5068864;28;20418;-84
2021/03/19 12:47:55;;;;;;;28.92;4.43;;;18.60;99.90;;;;;;5069369;28;20378;-85
2021/03/19 12:50:25;;;;;;;32.95;4.38;;;18.60;99.90;;;;;;5076438;28;20886;-85
2021/03/19 12:52:52;;;;;;;25.90;4.45;;;18.70;99.90;;;;;;5086912;28;20403;-83
2021/03/19 12:55:21;;;;;;;30.85;4.70;;;18.70;99.90;;;;;;5084950;28;20377;-85
2021/03/19 12:57:51;;;;;;;34.25;4.63;;;18.70;99.90;;;;;;5084314;28;20465;-84
2021/03/19 13:00:28;;;;;;;36.58;5.38;;;18.70;99.90;;;;;;5072096;28;20396;-84
2021/03/19 13:02:55;;;;;;;30.95;5.15;;;18.80;99.90;;;;;;5083151;28;20384;-84
2021/03/19 13:05:25;;;;;;;30.63;5.03;;;18.80;99.90;;;;;;5082943;28;20415;-85
2021/03/19 13:07:52;;;;;;;34.17;5.57;;;18.80;99.90;;;;;;5078788;28;20429;-84
2021/03/19 13:10:20;;;;;;;29.80;4.90;;;18.80;99.90;;;;;;5077180;28;20407;-84
2021/03/19 13:12:51;;;;;;;28.38;4.25;;;18.80;99.90;;;;;;5076536;28;20386;-83
2021/03/19 13:15:22;;;;;;;25.27;4.30;;;18.80;99.90;;;;;;5064780;28;20400;-83
2021/03/19 13:17:49;;;;;;;21.17;3.97;;;18.70;99.90;;;;;;5069273;28;20389;-86
2021/03/19 13:20:17;;;;;;;26.38;3.70;;;18.70;99.90;;;;;;5083366;28;20398;-86
2021/03/19 13:22:45;;;;;;;22.90;4.33;;;18.40;99.90;;;;;;5091499;28;20385;-90